Tiempo atmosférico en la estación meteorológica de Vigo Aeropuerto, Pontevedra (261 m.)



Fecha
DESCASC
Temp. máxima en grados centígrados (hora)
DESCASC
Temp. mínima en grados centígrados (hora)
DESCASC
Temp. media en grados centígrados
DESCASC
Racha de viento máxima en m/sg (hora)
DESCASC
Velocidad máxima media en intervalos de 10 minutos(hora)
DESCASC
Precipitaciones diarias en mm
DESCASC
Precipitaciones de 00:00 a 06:00 en mm
DESCASC
Precipitaciones de 06:00 a 12:00 en mm
DESCASC
Precipitaciones de 12:00 a 18:00 en mm
DESCASC
Precipitaciones de 18:00 a 24:00 en mm
DESCASC
23-06-2019 -- (--) -- (--) -- -- (--) -- (--) -- 3.4 0.4 -- 0
22-06-2019 24.2 (15:00) 13.7 (02:30) 19 9.17 (23:20) 6.67 (23:59) 0 0 0 0 0
21-06-2019 22.5 (13:30) 10.8 (06:40) 16.7 9.17 (14:10) 6.67 (14:10) 0 0 0 0 0
20-06-2019 21 (12:50) 14.1 (00:00) 17.6 9.17 (15:00) 6.39 (17:30) 0 0 0 0 0
19-06-2019 18.7 (16:10) 14.7 (00:00) 16.7 8.33 (15:40) 5.83 (19:30) 0.2 0 0 0.2 0
18-06-2019 19.7 (19:30) 12 (00:00) 15.9 17.5 (15:00) 10 (16:50) 2.9 0.7 0.2 1.9 0.1
17-06-2019 20.6 (18:20) 10.5 (00:00) 15.6 9.17 (12:50) 6.39 (15:00) 0 0 0 0 0
16-06-2019 21.7 (14:40) 9.2 (00:00) 15.5 10.83 (17:40) 6.67 (16:40) 0 0 0 0 0
15-06-2019 18.4 (15:20) 10.9 (00:00) 14.6 8.89 (14:50) 5.56 (17:30) 0 0 0 0 0
14-06-2019 17.8 (15:00) 8.3 (00:00) 13 11.39 (18:00) 6.94 (16:50) 0 0 0 0 0
13-06-2019 17.7 (14:30) 8.2 (00:00) 13 10.83 (16:50) 6.67 (16:30) 0 0 0 0 0
12-06-2019 17.8 (14:30) 7.7 (00:00) 12.7 10.83 (16:00) 6.67 (16:10) 0 0 0 0 0
11-06-2019 19.7 (17:00) 10.5 (00:00) 15.1 12.78 (12:40) 8.06 (14:00) 0 0 0 0 0
10-06-2019 19.4 (14:40) 8.6 (00:00) 14 10.83 (15:50) 6.94 (15:50) 0 0 0 0 0
09-06-2019 18.4 (16:10) 9.1 (00:00) 13.8 11.39 (17:10) 6.39 (17:30) 0 0 0 0 0
08-06-2019 18.1 (14:30) 8 (00:00) 13.1 7.22 (14:50) 4.72 (15:20) 0 0 0 0 0
07-06-2019 16.3 (14:00) 8.2 (00:00) 12.2 9.72 (16:00) 5.83 (14:10) 4.2 3.7 0.5 0 0
06-06-2019 13.3 (16:00) 10.2 (00:00) 11.8 20.56 (15:40) 12.78 (15:30) 16.9 0.8 0.8 14.8 0.5
05-06-2019 16.1 (15:10) 9.7 (00:00) 12.9 10.83 (14:10) 6.11 (16:20) 3.6 2.1 1.5 0 0
04-06-2019 17.2 (15:00) 12.4 (00:00) 14.8 10.83 (08:30) 6.67 (17:00) 3.4 0 3.4 0 0
03-06-2019 19.6 (16:50) 14.7 (00:00) 17.2 10.28 (16:00) 7.22 (17:50) 1 0 0.4 0.6 0
02-06-2019 22.9 (17:20) 14.1 (00:00) 18.5 9.17 (19:00) 6.67 (19:20) 0 0 0 0 0
01-06-2019 30.7 (15:00) 16.3 (00:00) 23.5 8.33 (17:10) 6.11 (17:20) 0 0 0 0 0
31-05-2019 33.1 (13:50) 19.1 (00:00) 26.1 12.5 (18:20) 7.78 (16:00) 0 0 0 0 0
30-05-2019 30.6 (14:10) 16.2 (00:00) 23.4 11.67 (16:50) 6.11 (19:50) 0 0 0 0 0
29-05-2019 29.7 (17:30) 10.2 (00:00) 20 8.89 (00:10) 5.83 (23:40) 0 0 0 0 0
28-05-2019 23.9 (18:00) 10 (00:00) 16.9 12.5 (00:40) 8.61 (00:40) 0 0 0 0 0
27-05-2019 22.8 (16:40) 11.6 (00:00) 17.2 12.5 (16:30) 8.33 (17:00) 0 0 0 0 0

Gráficas

Temp. máximas Temp. mínimas Temp. medias Precipitaciones Rachas de viento máximas Velocidades máximas media en intervalos de 10 minutos

Datos horarios

Fecha y hora oficial Temperatura (ºC) Velocidad del viento (km/h) Dirección del viento Racha (km/h) Dirección de racha Precipitación (mm) Presión (hPa) Tendencia (hPa) Humedad (%)
2019-06-25 23:00:00 16.7 6 Noroeste 22 Oeste 0 986.6 -0.1 89
2019-06-25 22:00:00 16.7 15 Oeste 41 Sudoeste 0.4 986.9 1 87
2019-06-25 21:00:00 18.5 10 Nordeste 24 Este 0 985.4 -0.6 72
2019-06-25 20:00:00 19.1 14 Oeste 26 Oeste 0 986.7 0.6 69
2019-06-25 19:00:00 20.6 14 Oeste 26 Oeste 0 985.9 -0.5 63
2019-06-25 18:00:00 20.6 22 Oeste 33 Oeste 0 986 -0.3 62
2019-06-25 17:00:00 22.1 20 Oeste 30 Oeste 0 986.1 -0.5 58
2019-06-25 16:00:00 22.6 17 Oeste 33 Oeste 0 986.4 -0.3 54
2019-06-25 15:00:00 23.1 21 Oeste 30 Oeste 0 986.3 -0.2 53
2019-06-25 14:00:00 23.5 13 Sudoeste 22 Oeste 0 986.6 0.4 50
2019-06-25 13:00:00 21.8 12 Oeste 28 Oeste 0 986.7 0.5 56
2019-06-25 12:00:00 21.2 10 Sudoeste 15 Sudoeste 0 986.5 0.5 61
2019-06-25 11:00:00 19.7 8 Sur 17 Sur 0 986.2 0.3 74
2019-06-25 10:00:00 17 10 Sudoeste 21 Sudoeste 0 986.2 0.4 84
2019-06-25 09:00:00 15.3 13 Sur 17 Sur 0 986 0.3 92
2019-06-25 08:00:00 13.9 8 Sudoeste 11 Sudoeste 0 985.9 0.3 97
2019-06-25 07:00:00 13 0 Calma 4 Nordeste 0 985.8 0.1 96
2019-06-25 06:00:00 13.1 3 Oeste 13 Sudoeste 0 985.7 -0.4 96
2019-06-25 05:00:00 13.8 7 Oeste 11 Sudoeste 0 985.6 -0.9 95
2019-06-25 04:00:00 13.4 6 Oeste 9 Sudoeste 0 985.7 -0.7 95
2019-06-25 03:00:00 13.7 5 Norte 5 Norte 0 986.1 -0.3 94
2019-06-25 02:00:00 13.9 2 Norte 8 Noroeste 0 986.5 0.4 93
2019-06-25 01:00:00 14 5 Oeste 8 Noroeste 0 986.4 0.7 93
2019-06-25 00:00:00 14.2 4 Oeste 13 Oeste 0 986.4 1 94
2019-06-24 23:00:00 14.8 6 Noroeste 9 Noroeste 0 986.1 1.1 93
2019-06-24 22:00:00 16.6 0 Calma 18 Oeste 0 985.7 0.9 87
2019-06-24 21:00:00 16.7 16 Oeste 26 Oeste 0.1 985.4 0.5 87
2019-06-24 20:00:00 16.9 12 Oeste 30 Oeste 0 985 0.2 88
2019-06-24 19:00:00 17.5 10 Oeste 22 Oeste 0 984.8 0.2 84
2019-06-24 18:00:00 18.5 17 Oeste 41 Oeste 0 984.9 0.2 76
2019-06-24 17:00:00 17.8 22 Oeste 30 Oeste 0 984.8 0.1 82
2019-06-24 16:00:00 19.9 16 Oeste 24 Oeste 0 984.6 -0.1 71
2019-06-24 15:00:00 19.8 10 Oeste 22 Sudoeste 0 984.7 0.3 72
2019-06-24 14:00:00 18.8 9 Sur 18 Sur 0 984.7 0.4 72
2019-06-24 13:00:00 19.9 12 Sur 21 Sudoeste 0 984.7 1.1 67
2019-06-24 12:00:00 18.1 9 Sur 17 Sur 0 984.4 0.8 81
2019-06-24 11:00:00 17.6 8 Sur 13 Sur 0 984.3 0.4 80
2019-06-24 10:00:00 16 3 Nordeste 8 Norte 0 983.6 0.2 90
2019-06-24 09:00:00 14.6 2 Nordeste 13 Sudoeste 0 983.6 0.1 95
2019-06-24 08:00:00 14.5 8 Sudoeste 13 Sudoeste 0 983.9 0.5 95
2019-06-24 07:00:00 14.6 8 Sudoeste 22 Oeste 0 983.4 -0.2 93
2019-06-24 06:00:00 14.3 10 Sudoeste 15 Sur 0 983.5 -0.3 94
2019-06-24 05:00:00 14.4 3 Sur 9 Noroeste 0 983.4 -0.6 93
2019-06-24 04:00:00 14.5 4 Este 9 Oeste 0 983.6 -0.5 93
2019-06-24 03:00:00 14.6 2 Este 8 Este 0 983.8 -0.5 92
2019-06-24 02:00:00 14.7 3 Norte 8 Oeste 0 984 0.1 90
2019-06-24 01:00:00 14.6 6 Noroeste 9 Noroeste 0 984.1 0.8 91
2019-06-24 00:00:00 15.2 6 Noroeste 13 Noroeste 0 984.3 1.1 90
2019-06-23 23:00:00 15.7 3 Nordeste 8 Noroeste 0 983.9 1 87
2019-06-23 22:00:00 16.3 5 Nordeste 11 Norte 0 983.3 0.7 88
2019-06-23 21:00:00 17.2 6 Nordeste 15 Oeste 0 983.2 0.6 87
2019-06-23 20:00:00 17.9 9 Oeste 21 Oeste 0 982.9 0.3 82
2019-06-23 19:00:00 18.7 15 Oeste 24 Oeste 0 982.6 -0.1 81
2019-06-23 18:00:00 20.6 12 Oeste 24 Oeste 0 982.6 -0.1 72
2019-06-23 17:00:00 20.3 13 Oeste 24 Sudeste 0 982.6 -- 72
2019-06-23 16:00:00 21.9 12 Sur 28 Sudeste 0 982.7 -- 55
2019-06-23 15:00:00 21.7 15 Sudeste -- -- -- 982.7 -- 57
2019-06-23 14:00:00 -- -- -- -- -- -- -- -- --
2019-06-23 13:00:00 -- -- -- -- -- -- -- -- --
2019-06-23 12:00:00 -- -- -- -- -- -- -- -- --
2019-06-23 11:00:00 15.8 8 Sur 15 Sudeste 0 982.1 1 96
2019-06-23 10:00:00 15.1 6 Sur 17 Sur 0 981.9 1 97
2019-06-23 09:00:00 14.8 11 Sur 22 Sur 0 981.4 0.4 98
2019-06-23 08:00:00 14.5 13 Sur 24 Sur 0.1 981.1 0 97
2019-06-23 07:00:00 14.4 12 Sur 21 Sur 0.3 980.9 -0.5 98
2019-06-23 06:00:00 14.4 15 Sur 24 Sur 0 981 -0.9 97
2019-06-23 05:00:00 14.1 13 Sur 22 Sur 0 981.1 -0.5 98
2019-06-23 04:00:00 14 18 Sur 28 Sur 0 981.4 -0.8 97
2019-06-23 03:00:00 13.8 15 Sur 28 Sur 0.3 981.9 -0.3 92
2019-06-23 02:00:00 14.1 14 Sudoeste 30 Sur 0.7 981.6 -0.7 89
2019-06-23 01:00:00 15 18 Sur 32 Sur 2.4 982.2 0.1 75
2019-06-23 00:00:00 17.9 24 Sur 33 Sur 0 982.2 0.1 50
2019-06-22 23:00:00 18 21 Sur 32 Sur 0 982.3 0 50
2019-06-22 22:00:00 18.4 16 Sur 30 Sur 0 982.1 -0.4 49
2019-06-22 21:00:00 19.2 13 Sur 21 Sur 0 982.1 -0.4 47
2019-06-22 20:00:00 19.8 6 Sur 21 Sur 0 982.3 -0.6 50
2019-06-22 19:00:00 20.9 14 Sudoeste 22 Sur 0 982.5 -0.4 43
2019-06-22 18:00:00 21.6 18 Sur 30 Sur 0 982.5 -0.7 38
2019-06-22 17:00:00 21.9 12 Sudoeste 32 Sur 0 982.9 -0.8 37
2019-06-22 16:00:00 23.3 11 Oeste 21 Sudoeste 0 982.9 -0.7 46
2019-06-22 15:00:00 23.7 13 Sudoeste 32 Oeste 0 983.2 -0.6 46
2019-06-22 14:00:00 21 11 Sudoeste 28 Sudoeste 0 983.7 -0.5 59
2019-06-22 13:00:00 20.1 18 Sur 26 Sur 0 983.6 -1.1 60
2019-06-22 12:00:00 16.6 14 Sur 21 Sur 0 983.8 -0.8 80
2019-06-22 11:00:00 16.5 11 Sur 18 Sur 0 984.2 -0.4 83
2019-06-22 10:00:00 16.4 2 Sudeste 11 Este 0 984.7 0.6 83
2019-06-22 09:00:00 15.1 4 Este 21 Oeste 0 984.6 0.4 88
2019-06-22 08:00:00 14.3 14 Sudoeste 21 Sudoeste 0 984.6 -0.5 87
2019-06-22 07:00:00 14.8 8 Sudoeste 30 Oeste 0 984.1 -1.4 83
2019-06-22 06:00:00 14.1 12 Sudoeste 17 Sudoeste 0 984.2 -2 85
2019-06-22 05:00:00 14.3 6 Sudoeste 11 Sur 0 985.1 -1.2 84
2019-06-22 04:00:00 14.2 2 Norte 9 Oeste 0 985.5 -1.1 85
2019-06-22 03:00:00 14 6 Oeste 8 Oeste 0 986.2 -0.7 84
2019-06-22 02:00:00 14.3 0 Calma 8 Noroeste 0 986.3 -0.8 82
2019-06-22 01:00:00 14.7 3 Noroeste 8 Oeste 0 986.6 -0.9 81
2019-06-22 00:00:00 15 6 Noroeste 11 Noroeste 0 986.9 -0.7 80
2019-06-21 23:00:00 15.4 5 Noroeste 22 Oeste 0 987.1 -0.4 77
2019-06-21 22:00:00 17.5 13 Oeste 32 Oeste 0 987.5 0 68
2019-06-21 21:00:00 18.9 17 Oeste 26 Oeste 0 987.6 -0.1 64
2019-06-21 20:00:00 19.1 19 Oeste 30 Oeste 0 987.5 -0.4 64
2019-06-21 19:00:00 20.3 23 Oeste 32 Sudoeste 0 987.5 -0.8 60
2019-06-21 18:00:00 21.4 21 Oeste 30 Oeste 0 987.7 -0.8 58
2019-06-21 17:00:00 22.1 16 Oeste 26 Sudoeste 0 987.9 -0.8 56
2019-06-21 16:00:00 21.6 18 Oeste 28 Sudoeste 0 988.3 -0.2 57
2019-06-21 15:00:00 20.9 19 Sudoeste 33 Oeste 0 988.5 -0.1 59
2019-06-21 14:00:00 20.8 21 Oeste 30 Oeste 0 988.7 0.1 59
2019-06-21 13:00:00 20.9 5 Oeste 18 Sudoeste 0 988.5 -0.1 56
2019-06-21 12:00:00 20.4 5 Este 18 Este 0 988.6 0.1 58
2019-06-21 11:00:00 19.1 7 Sudeste 15 Sudeste 0 988.6 0.4 65
2019-06-21 10:00:00 17.2 3 Este 11 Este 0 988.6 0.7 71
2019-06-21 09:00:00 15.7 4 Este 8 Este 0 988.5 0.9 79
2019-06-21 08:00:00 13.1 2 Norte 5 Oeste 0 988.2 0.4 89
2019-06-21 07:00:00 11.2 4 Nordeste 8 Nordeste 0 987.9 0.1 93
2019-06-21 06:00:00 11.3 0 Calma 8 Oeste 0 987.6 -0.3 92
2019-06-21 05:00:00 11.7 3 Este 8 Oeste 0 987.8 0 91
2019-06-21 04:00:00 11.9 5 Noroeste 8 Noroeste 0 987.8 0.1 90
2019-06-21 03:00:00 13 3 Norte 8 Nordeste 0 987.9 0.5 86
2019-06-21 02:00:00 14.8 9 Norte 15 Norte 0 987.8 1.1 77
2019-06-21 01:00:00 14.9 6 Norte 22 Norte 0 987.7 1.5 80
2019-06-21 00:00:00 15.9 9 Nordeste 17 Norte 0 987.4 1.3 79
2019-06-20 23:00:00 16.9 11 Nordeste 21 Norte 0 986.7 0.8 76
2019-06-20 22:00:00 18.2 15 Norte 28 Norte 0 986.2 0.3 71
2019-06-20 21:00:00 18.9 17 Norte 28 Norte 0 986.1 0.1 71
2019-06-20 20:00:00 20.1 14 Noroeste 22 Norte 0 985.9 -0.3 67
2019-06-20 19:00:00 20.6 12 Oeste 28 Oeste 0 985.9 -0.3 63
2019-06-20 18:00:00 18.7 22 Oeste 33 Oeste 0 986 -0.4 68
2019-06-20 17:00:00 19.2 19 Oeste 32 Oeste 0 986.2 -0.1 69
2019-06-20 16:00:00 20.4 17 Oeste 33 Oeste 0 986.2 -0.4 66
2019-06-20 15:00:00 20.2 13 Oeste 33 Oeste 0 986.4 0.1 67
2019-06-20 14:00:00 20.4 7 Oeste 18 Norte 0 986.3 0 67
2019-06-20 13:00:00 20.6 9 Este 18 Este 0 986.6 0.2 68
2019-06-20 12:00:00 19.1 7 Nordeste 15 Nordeste 0 986.3 0.1 74
2019-06-20 11:00:00 17.2 5 Nordeste 13 Nordeste 0 986.3 0.1 85
2019-06-20 10:00:00 15.4 4 Nordeste 9 Norte 0 986.4 0.4 93
2019-06-20 09:00:00 14.7 4 Nordeste 9 Nordeste 0 986.2 0.1 96
2019-06-20 08:00:00 14.3 7 Nordeste 15 Norte 0 986.2 0 97
2019-06-20 07:00:00 14.4 9 Norte 11 Norte 0 986 -0.5 98
2019-06-20 06:00:00 14.6 5 Norte 8 Norte 0 986.1 -0.9 97
2019-06-20 05:00:00 14.5 3 Noroeste 8 Norte 0 986.2 -0.9 97
2019-06-20 04:00:00 14.7 5 Norte 8 Norte 0 986.5 -0.8 96
2019-06-20 03:00:00 14.8 3 Oeste 5 Oeste 0 987 -0.1 94
2019-06-20 02:00:00 14.7 3 Norte 9 Noroeste 0 987.1 0.1 95
2019-06-20 01:00:00 14.7 7 Oeste 11 Oeste 0 987.3 0.5 94
2019-06-20 00:00:00 14.7 6 Sudoeste 8 Sudoeste 0 987.1 0.4 93
2019-06-19 23:00:00 15.1 4 Oeste 18 Oeste 0 987 0.5 91
2019-06-19 22:00:00 15.4 8 Oeste 13 Oeste 0 986.8 0.6 89
2019-06-19 21:00:00 16.1 8 Oeste 26 Oeste 0 986.7 0.3 87
2019-06-19 20:00:00 16.1 20 Oeste 30 Oeste 0 986.5 0.1 89
2019-06-19 19:00:00 17.3 13 Oeste 21 Oeste 0 986.2 0 84
2019-06-19 18:00:00 17.1 6 Oeste 22 Oeste 0.2 986.4 0.2 88
2019-06-19 17:00:00 17.6 14 Sudoeste 26 Sudoeste 0 986.4 0.4 82
2019-06-19 16:00:00 17.8 12 Oeste 30 Oeste 0 986.2 0.4 77
2019-06-19 15:00:00 16.9 11 Oeste 22 Oeste 0 986.2 0.8 89
2019-06-19 14:00:00 16.3 10 Sur 22 Sur 0 986 1.2 91
2019-06-19 13:00:00 17.3 10 Sur 21 Sur 0 985.8 1.1 87
2019-06-19 12:00:00 16.4 14 Sur 22 Sur 0 985.4 1 89
2019-06-19 11:00:00 15.7 9 Sur 21 Sur 0 984.8 1.1 93
2019-06-19 10:00:00 15.3 9 Sur 21 Sudeste 0 984.7 1.2 96
2019-06-19 09:00:00 14.9 12 Sur 18 Sur 0 984.4 1.2 96
2019-06-19 08:00:00 14.7 9 Sur 17 Sur 0 983.7 0.6 97
2019-06-19 07:00:00 14.8 8 Sur 18 Sur 0 983.5 0.5 97
2019-06-19 06:00:00 15.1 14 Sur 18 Sur 0 983.2 0.2 96
2019-06-19 05:00:00 15.1 12 Sur 17 Sur 0 983.1 0.1 97
2019-06-19 04:00:00 15.1 11 Sur 17 Sur 0 983 -0.1 97
2019-06-19 03:00:00 15.1 8 Sur 13 Sur 0 983 -0.2 96
2019-06-19 02:00:00 15.2 8 Sur 13 Sur 0 983 0.2 95
2019-06-19 01:00:00 15.5 10 Sudoeste 17 Sur 0 983.1 0.8 94
2019-06-19 00:00:00 15.7 14 Sur 24 Sur 0.1 983.2 1.1 95
2019-06-18 23:00:00 16 16 Sur 26 Sur 0 982.8 1.2 92
2019-06-18 22:00:00 17 15 Sur 35 Sur 0 982.3 1.1 81
2019-06-18 21:00:00 17.4 23 Sudoeste 46 Sur 0 982.1 1.1 79
2019-06-18 20:00:00 18.1 27 Sur 45 Sur 0 981.6 0.7 77
2019-06-18 19:00:00 18.8 32 Sur 52 Sur 0 981.2 0.2 72
2019-06-18 18:00:00 19.1 31 Sur 54 Sudoeste 0 981 1.1 75
2019-06-18 17:00:00 18.1 30 Sudoeste 50 Sur 0 980.9 1.3 83
2019-06-18 16:00:00 15.8 22 Sur 50 Sur 0.9 981 1 96
2019-06-18 15:00:00 16.2 31 Sur 63 Sur 1 979.9 -0.3 93
2019-06-18 14:00:00 17.8 25 Sur 50 Sur 0 979.6 -0.6 81
2019-06-18 13:00:00 18 30 Sur 50 Sur 0 980 -0.6 83
2019-06-18 12:00:00 14.7 17 Sur 28 Sur 0.2 980.2 -0.5 95
2019-06-18 11:00:00 14 12 Sudoeste 22 Sur 0 980.2 -0.1 90
2019-06-18 10:00:00 13.1 17 Sur 24 Sur 0 980.6 -0.1 93
2019-06-18 09:00:00 12.6 19 Sur 30 Sur 0 980.7 -0.1 91
2019-06-18 08:00:00 12.9 14 Sur 28 Sudeste 0 980.3 -0.8 80
2019-06-18 07:00:00 12.6 14 Sur 22 Sur 0 980.7 -0.7 78
2019-06-18 06:00:00 13 13 Sur 26 Sudeste 0.6 980.8 -1.1 75
2019-06-18 05:00:00 14.2 11 Sur 17 Sur 0.1 981.1 -1.1 67
2019-06-18 04:00:00 14.1 8 Sudoeste 15 Sudoeste 0 981.4 -1.3 80
2019-06-18 03:00:00 15.1 10 Sudoeste 18 Sudoeste 0 981.9 -1.3 70
2019-06-18 02:00:00 14.9 11 Sudoeste 18 Sur 0 982.2 -1 74
2019-06-18 01:00:00 14.2 6 Oeste 11 Oeste 0 982.7 -0.8 72
2019-06-18 00:00:00 14 4 Noroeste 13 Norte 0 983.2 -0.7 75
2019-06-17 23:00:00 14.4 8 Norte 13 Noroeste 0 983.2 -0.5 79
2019-06-17 22:00:00 14.5 10 Norte 18 Oeste 0 983.5 -0.4 85
2019-06-17 21:00:00 15 17 Oeste 32 Oeste 0 983.9 -0.7 82
2019-06-17 20:00:00 17.6 23 Oeste 30 Sudoeste 0 983.7 -1.6 72
2019-06-17 19:00:00 18.7 15 Oeste 26 Sudoeste 0 983.9 -1.7 70
2019-06-17 18:00:00 19.9 8 Sur 18 Oeste 0 984.6 -1.8 63
2019-06-17 17:00:00 18.1 12 Oeste 21 Sudoeste 0 985.3 -0.8 72
2019-06-17 16:00:00 18.8 5 Sudoeste 30 Oeste 0 985.6 -0.7 67
2019-06-17 15:00:00 16.5 23 Oeste 30 Oeste 0 986.4 0.6 78
2019-06-17 14:00:00 16.2 4 Norte 26 Sudoeste 0 986.1 0.4 78
2019-06-17 13:00:00 16.5 17 Oeste 33 Oeste 0 986.3 0.5 78
2019-06-17 12:00:00 18.5 9 Sur 18 Sudoeste 0 985.8 -0.9 61
2019-06-17 11:00:00 16.7 8 Sur 22 Sur 0 985.7 -0.6 71
2019-06-17 10:00:00 14.7 11 Sur 18 Sur 0 985.8 -0.6 79
2019-06-17 09:00:00 13.2 11 Sur 15 Sur 0 986.7 0.1 87
2019-06-17 08:00:00 11.6 8 Sudoeste 11 Sudoeste 0 986.3 -0.5 89
2019-06-17 07:00:00 10.6 6 Oeste 13 Noroeste 0 986.4 -0.6 90
2019-06-17 06:00:00 10.8 2 Noroeste 8 Oeste 0 986.6 -1.3 91
2019-06-17 05:00:00 11.5 6 Sudoeste 11 Sudoeste 0 986.8 -1.1 88
2019-06-17 04:00:00 11.6 3 Sudoeste 8 Oeste 0 987 -1.2 88
2019-06-17 03:00:00 12.3 7 Sudoeste 11 Sudoeste 0 987.9 -0.5 87
2019-06-17 02:00:00 11.8 7 Oeste 9 Oeste 0 987.9 -0.6 87
2019-06-17 01:00:00 12.6 3 Noroeste 11 Oeste 0 988.2 0 85
2019-06-17 00:00:00 13.3 11 Oeste 15 Sur 0 988.4 0.2 85
2019-06-16 23:00:00 13.8 9 Sudoeste 21 Oeste 0 988.5 0.7 84
2019-06-16 22:00:00 15.1 14 Oeste 30 Oeste 0 988.2 0.4 78
2019-06-16 21:00:00 16.8 22 Sudoeste 33 Oeste 0 988.2 0.2 64
2019-06-16 20:00:00 18.7 19 Oeste 30 Oeste 0 987.8 -0.4 56
2019-06-16 19:00:00 19.2 20 Oeste 28 Sudoeste 0 987.8 -0.5 55
2019-06-16 18:00:00 19.4 19 Oeste 39 Oeste 0 988 -0.5 55
2019-06-16 17:00:00 19.8 22 Oeste 33 Sudoeste 0 988.2 -0.5 57
2019-06-16 16:00:00 20.1 23 Oeste 33 Sudoeste 0 988.3 -0.6 58
2019-06-16 15:00:00 20.8 17 Oeste 30 Oeste 0 988.5 -0.6 57
2019-06-16 14:00:00 21 9 Oeste 17 Oeste 0 988.7 -0.6 53
2019-06-16 13:00:00 20.1 10 Norte 17 Norte 0 988.9 -0.5 54
2019-06-16 12:00:00 19.2 9 Nordeste 17 Nordeste 0 989.1 -0.2 63
2019-06-16 11:00:00 16.6 6 Sur 13 Sur 0 989.3 0.1 65
2019-06-16 10:00:00 14.8 4 Sur 9 Sur 0 989.4 0.4 73
2019-06-16 09:00:00 13.6 5 Este 9 Este 0 989.3 0.1 80
2019-06-16 08:00:00 10.5 6 Sudoeste 15 Oeste 0 989.2 -0.3 88
2019-06-16 07:00:00 9.5 4 Norte 5 Norte 0 989 -1 92
2019-06-16 06:00:00 9.7 4 Noroeste 11 Norte 0 989.2 -1.2 88
2019-06-16 05:00:00 10.1 5 Norte 9 Norte 0 989.5 -1.5 92
2019-06-16 04:00:00 10.2 5 Norte 13 Norte 0 990 -1.6 94
2019-06-16 03:00:00 10.8 6 Norte 13 Norte 0 990.4 -1.1 87
2019-06-16 02:00:00 12.2 10 Norte 13 Norte 0 991 -0.4 83
2019-06-16 01:00:00 11.6 7 Noroeste 9 Noroeste 0 991.6 0.5 83
2019-06-16 00:00:00 11.6 6 Noroeste 22 Oeste 0 991.5 0.2 81
2019-06-15 23:00:00 13 11 Oeste 15 Oeste 0 991.4 0 75
2019-06-15 22:00:00 14.4 12 Oeste 28 Oeste 0 991.1 -0.2 74
2019-06-15 21:00:00 15.9 13 Oeste 26 Oeste 0 991.3 -0.3 63
2019-06-15 20:00:00 16.6 14 Oeste 24 Oeste 0 991.4 -0.4 62
2019-06-15 19:00:00 17.2 16 Oeste 32 Oeste 0 991.3 -0.6 59
2019-06-15 18:00:00 17.8 16 Oeste 30 Oeste 0 991.6 -0.2 54
2019-06-15 17:00:00 18 15 Oeste 30 Oeste 0 991.8 -0.1 57
2019-06-15 16:00:00 17.6 16 Oeste 28 Oeste 0 991.9 0.2 60
2019-06-15 15:00:00 17.7 15 Oeste 32 Oeste 0 991.8 0.3 60
2019-06-15 14:00:00 16.6 12 Oeste 21 Oeste 0 991.9 0.6 66
2019-06-15 13:00:00 15.7 11 Sudoeste 18 Sur 0 991.7 0.7 66
2019-06-15 12:00:00 16.8 5 Sur 15 Sur 0 991.5 0.9 65
2019-06-15 11:00:00 15 11 Sur 17 Sur 0 991.3 1.1 75
2019-06-15 10:00:00 13.5 10 Sur 13 Sur 0 991 1.3 89
2019-06-15 09:00:00 11.7 8 Sur 11 Sur 0 990.6 1.2 98
2019-06-15 08:00:00 11.1 8 Sur 13 Sur 0 990.2 0.9 98
2019-06-15 07:00:00 11.2 9 Sudoeste 13 Sur 0 989.7 0.5 98
2019-06-15 06:00:00 11.2 8 Sur 11 Sur 0 989.4 0.2 97
2019-06-15 05:00:00 12.3 4 Sudoeste 9 Oeste 0 989.3 0.1 92
2019-06-15 04:00:00 12.4 3 Oeste 5 Oeste 0 989.2 0.1 92
2019-06-15 03:00:00 13.2 3 Este 11 Oeste 0 989.2 0.3 88
2019-06-15 02:00:00 13.3 9 Sudoeste 17 Sudoeste 0 989.2 0.8 88
2019-06-15 01:00:00 13.6 12 Sudoeste 18 Sudoeste 0 989.1 1.4 85
2019-06-15 00:00:00 13.9 10 Sur 15 Sur 0 988.9 1.5 79
2019-06-14 23:00:00 14.1 9 Sudoeste 35 Oeste 0 988.4 1.5 78
2019-06-14 22:00:00 14.3 11 Sudoeste 22 Oeste 0 987.7 1.3 77
2019-06-14 21:00:00 14.8 11 Oeste 30 Oeste 0 987.4 1.2 72
2019-06-14 20:00:00 15.3 17 Oeste 32 Oeste 0 986.9 0.9 66
2019-06-14 19:00:00 15.6 21 Oeste 33 Oeste 0 986.4 0.7 69
2019-06-14 18:00:00 16.3 23 Oeste 41 Oeste 0 986.2 0.8 64
2019-06-14 17:00:00 16.8 23 Oeste 37 Oeste 0 986 0.6 58
2019-06-14 16:00:00 16.8 22 Oeste 35 Oeste 0 985.7 0.8 54
2019-06-14 15:00:00 17.5 20 Oeste 32 Oeste 0 985.4 0.8 47
2019-06-14 14:00:00 17.2 18 Oeste 30 Oeste 0 985.4 1.1 49
2019-06-14 13:00:00 17 14 Oeste 26 Oeste 0 984.9 0.8 54
2019-06-14 12:00:00 15.8 9 Sudoeste 18 Sudoeste 0 984.6 0.9 59
2019-06-14 11:00:00 17.1 6 Este 17 Este 0 984.3 0.7 62
2019-06-14 10:00:00 14.5 5 Este 9 Este 0 984.1 0.6 76
2019-06-14 09:00:00 11.4 0 Calma 8 Este 0 983.7 0.6 86
2019-06-14 08:00:00 10.1 4 Nordeste 5 Este 0 983.6 0.9 91
2019-06-14 07:00:00 8.8 2 Oeste 8 Oeste 0 983.5 0.6 92
2019-06-14 06:00:00 8.6 0 Calma 8 Oeste 0 983.1 0 91
2019-06-14 05:00:00 9.2 6 Norte 8 Noroeste 0 982.7 -0.8 89
2019-06-14 04:00:00 9.2 5 Noroeste 9 Noroeste 0 982.9 -0.9 88
2019-06-14 03:00:00 9.5 5 Noroeste 8 Noroeste 0 983.1 -0.8 90
2019-06-14 02:00:00 10.3 4 Norte 13 Oeste 0 983.5 -0.1 88
2019-06-14 01:00:00 11.4 9 Oeste 18 Oeste 0 983.8 0.5 85
2019-06-14 00:00:00 11.7 12 Oeste 21 Sudoeste 0 983.9 0.7 82
2019-06-13 23:00:00 12.3 12 Oeste 24 Oeste 0 983.6 0.7 78
2019-06-13 22:00:00 13.3 14 Oeste 32 Oeste 0 983.3 0.4 73
2019-06-13 21:00:00 14.9 12 Oeste 26 Oeste 0 983.2 0.4 61
2019-06-13 20:00:00 15.4 16 Noroeste 26 Oeste 0 982.9 0.1 62
2019-06-13 19:00:00 16 18 Oeste 30 Oeste 0 982.9 0.2 58
2019-06-13 18:00:00 16.5 17 Oeste 33 Sudoeste 0 982.8 0.1 57
2019-06-13 17:00:00 16.2 22 Oeste 39 Oeste 0 982.8 0.2 57
2019-06-13 16:00:00 16.5 22 Oeste 33 Oeste 0 982.7 0.2 57
2019-06-13 15:00:00 16.7 19 Oeste 33 Sudoeste 0 982.7 0.1 53
2019-06-13 14:00:00 16.6 15 Oeste 30 Oeste 0 982.6 0.1 53
2019-06-13 13:00:00 14.9 11 Oeste 28 Oeste 0 982.5 -0.1 57
2019-06-13 12:00:00 15.7 6 Noroeste 21 Nordeste 0 982.6 0.3 56
2019-06-13 11:00:00 15.5 8 Nordeste 15 Nordeste 0 982.5 0.2 65
2019-06-13 10:00:00 14.1 7 Este 15 Este 0 982.6 0.3 76
2019-06-13 09:00:00 11.9 5 Nordeste 9 Nordeste 0 982.3 0 81
2019-06-13 08:00:00 9.7 3 Norte 9 Nordeste 0 982.3 0 88
2019-06-13 07:00:00 8.8 8 Nordeste -- -- 0 982.3 -0.2 92
2019-06-13 06:00:00 8.8 4 Nordeste 9 Norte 0 982.3 -0.4 92
2019-06-13 05:00:00 9.4 7 Norte 11 Norte 0 982.3 -0.7 89
2019-06-13 04:00:00 9.8 5 Norte 9 Norte 0 982.5 -0.8 85
2019-06-13 03:00:00 10.4 5 Norte 13 Norte 0 982.7 -1 83
2019-06-13 02:00:00 10.8 10 Norte 15 Norte 0 983 -0.8 83
2019-06-13 01:00:00 11.1 11 Norte 17 Norte 0 983.3 -0.4 86
2019-06-13 00:00:00 11.9 10 Norte 17 Oeste 0 983.7 0.1 82
2019-06-12 23:00:00 12.2 9 Noroeste 15 Noroeste 0 983.8 0 77
2019-06-12 22:00:00 13.1 11 Oeste 32 Oeste 0 983.7 -0.3 74
2019-06-12 21:00:00 14.7 16 Oeste 26 Oeste 0 983.6 -0.9 66
2019-06-12 20:00:00 15.4 17 Oeste 32 Oeste 0 983.8 -0.9 62
2019-06-12 19:00:00 16 21 Oeste 32 Oeste 0 984 -0.9 60
2019-06-12 18:00:00 16.5 19 Oeste 35 Oeste 0 984.5 -0.8 58
2019-06-12 17:00:00 16.9 20 Oeste 37 Oeste 0 984.7 -1.2 58
2019-06-12 16:00:00 17.1 21 Oeste 39 Oeste 0 984.9 -1.5 56
2019-06-12 15:00:00 17.1 13 Oeste 22 Oeste 0 985.3 -1.4 55
2019-06-12 14:00:00 16 12 Norte 22 Nordeste 0 985.9 -0.7 57
2019-06-12 13:00:00 15.1 11 Norte 28 Norte 0 986.4 -0.4 59
2019-06-12 12:00:00 15.9 10 Norte 26 Nordeste 0 986.7 -0.3 52
2019-06-12 11:00:00 14.8 12 Nordeste 21 Nordeste 0 986.6 -0.6 61
2019-06-12 10:00:00 13.3 10 Nordeste 17 Nordeste 0 986.8 -0.5 74
2019-06-12 09:00:00 11.7 5 Nordeste 11 Norte 0 987 0 79
2019-06-12 08:00:00 9.5 4 Noroeste 11 Norte 0 987.2 -0.3 82
2019-06-12 07:00:00 7.9 9 Norte 13 Norte 0 987.3 -0.8 92
2019-06-12 06:00:00 8.9 6 Norte 15 Norte 0 987 -1.5 87
2019-06-12 05:00:00 9.1 8 Norte 11 Norte 0 987.5 -1.5 86
2019-06-12 04:00:00 9.5 5 Norte 13 Norte 0 988.1 -1.2 84
2019-06-12 03:00:00 10.2 9 Norte 18 Norte 0 988.5 -0.9 82
2019-06-12 02:00:00 10.4 12 Norte 15 Norte 0 989 -0.4 81
2019-06-12 01:00:00 10.7 5 Nordeste 17 Norte 0 989.3 0.4 78
2019-06-12 00:00:00 11.7 9 Norte 24 Nordeste 0 989.4 0.7 71
2019-06-11 23:00:00 12.7 13 Nordeste 30 Nordeste 0 989.4 0.8 64
2019-06-11 22:00:00 13.9 19 Norte 39 Norte 0 988.9 0.4 56
2019-06-11 21:00:00 15.6 20 Norte 45 Norte 0 988.7 0.2 54
2019-06-11 20:00:00 17.1 23 Norte 42 Norte 0 988.6 0.1 49
2019-06-11 19:00:00 18.2 24 Norte 39 Norte 0 988.5 -0.3 48
2019-06-11 18:00:00 18.4 20 Norte 42 Norte 0 988.5 -0.5 46
2019-06-11 17:00:00 19.3 21 Norte 39 Norte 0 988.5 -0.9 47
2019-06-11 16:00:00 18.3 24 Norte 42 Norte 0 988.8 -0.7 45
2019-06-11 15:00:00 17.9 27 Norte 42 Norte 0 989 -0.2 47
2019-06-11 14:00:00 17.4 29 Norte 46 Noroeste 0 989.4 0.3 48
2019-06-11 13:00:00 16.6 26 Norte 46 Norte 0 989.5 0.4 47
2019-06-11 12:00:00 16.5 25 Nordeste 45 Nordeste 0 989.2 0.6 49
2019-06-11 11:00:00 15 22 Norte 39 Norte 0 989.1 0.7 54
2019-06-11 10:00:00 14.1 18 Nordeste 39 Norte 0 989.1 1 63
2019-06-11 09:00:00 12.6 15 Nordeste 30 Norte 0 988.6 1 74
2019-06-11 08:00:00 11.2 16 Norte 26 Norte 0 988.4 0.6 88
2019-06-11 07:00:00 10.8 14 Norte 30 Norte 0 988.1 0.1 93
2019-06-11 06:00:00 11.1 10 Norte 21 Norte 0 987.6 -0.4 82
2019-06-11 05:00:00 11.7 6 Nordeste 26 Norte 0 987.8 -0.6 78
2019-06-11 04:00:00 12.5 12 Norte 22 Norte 0 988 -0.6 71
2019-06-11 03:00:00 12.7 8 Norte 17 Norte 0 988 -0.9 72
2019-06-11 02:00:00 12.8 8 Nordeste 21 Norte 0 988.4 -0.4 75
2019-06-11 01:00:00 13.2 10 Norte 17 Nordeste 0 988.6 -0.1 76
2019-06-11 00:00:00 13.4 3 Norte 18 Oeste 0 988.9 0 74
2019-06-10 23:00:00 13.4 9 Oeste 33 Oeste 0 988.8 0.1 72
2019-06-10 22:00:00 13.7 9 Oeste 22 Oeste 0 988.7 -0.5 74
2019-06-10 21:00:00 14.4 16 Oeste 24 Oeste 0 988.9 -0.3 69
2019-06-10 20:00:00 14.8 14 Oeste 33 Oeste 0 988.7 -0.8 72
2019-06-10 19:00:00 15.1 20 Oeste 33 Oeste 0 989.2 -0.5 65
2019-06-10 18:00:00 16.3 21 Oeste 35 Oeste 0 989.2 -0.8 58
2019-06-10 17:00:00 16.9 20 Oeste 33 Oeste 0 989.5 -1.1 61
2019-06-10 16:00:00 17.3 21 Oeste 39 Oeste 0 989.7 -1.1 60
2019-06-10 15:00:00 17.3 14 Oeste 30 Oeste 0 990 -1.1 59
2019-06-10 14:00:00 17.1 12 Oeste 33 Norte 0 990.6 -0.6 51
2019-06-10 13:00:00 17.7 12 Nordeste 26 Nordeste 0 990.8 -0.5 49
2019-06-10 12:00:00 16.6 12 Norte 24 Norte 0 991.1 -0.1 55
2019-06-10 11:00:00 15.8 9 Nordeste 17 Nordeste 0 991.2 0.1 61
2019-06-10 10:00:00 13.2 7 Nordeste 13 Nordeste 0 991.3 0.6 78
2019-06-10 09:00:00 11.8 5 Nordeste 9 Este 0 991.2 0.7 82
2019-06-10 08:00:00 10.2 5 Norte 11 Norte 0 991.1 0.5 86
2019-06-10 07:00:00 9.2 8 Norte 15 Norte 0 990.7 -0.3 89
2019-06-10 06:00:00 9.7 7 Norte 17 Norte 0 990.5 -0.7 87
2019-06-10 05:00:00 9.8 4 Norte 11 Norte 0 990.6 -0.7 86
2019-06-10 04:00:00 10.3 5 Norte 9 Noroeste 0 991 -0.7 86
2019-06-10 03:00:00 11.1 7 Norte 13 Norte 0 991.2 -0.3 83
2019-06-10 02:00:00 11.6 8 Nordeste 15 Norte 0 991.3 0.1 82
2019-06-10 01:00:00 12.4 6 Norte 9 Norte 0 991.7 0.9 80
2019-06-10 00:00:00 11.8 4 Norte 15 Oeste 0 991.5 0.8 84
2019-06-09 23:00:00 13.3 4 Oeste 22 Oeste 0 991.2 0.6 78
2019-06-09 22:00:00 14.1 13 Oeste 24 Oeste 0 990.8 0.3 68
2019-06-09 21:00:00 15.7 17 Oeste 24 Oeste 0 990.7 0.4 54
2019-06-09 20:00:00 16.4 16 Oeste 30 Oeste 0 990.6 0.5 57
2019-06-09 19:00:00 16.6 17 Oeste 32 Oeste 0 990.5 0.6 56
2019-06-09 18:00:00 16.9 22 Oeste 41 Oeste 0 990.3 0.2 56
2019-06-09 17:00:00 17.7 20 Oeste 35 Oeste 0 990.1 -0.1 48
2019-06-09 16:00:00 17.7 19 Oeste 30 Sudoeste 0 989.9 -0.4 45
2019-06-09 15:00:00 16.7 16 Sudoeste 33 Oeste 0 990.1 -0.1 48
2019-06-09 14:00:00 17.5 16 Sudoeste 24 Oeste 0 990.2 0.2 53
2019-06-09 13:00:00 16.8 8 Oeste 22 Sudoeste 0 990.3 0.3 54
2019-06-09 12:00:00 16.1 8 Oeste 17 Sudoeste 0 990.2 0.7 60
2019-06-09 11:00:00 15.4 8 Este 13 Este 0 990 0.8 75
2019-06-09 10:00:00 13.8 6 Sur 13 Sudoeste 0 990 0.8 78
2019-06-09 09:00:00 13.1 3 Este 8 Este 0 989.5 0.3 81
2019-06-09 08:00:00 10.8 0 Calma 5 Oeste 0 989.2 -0.2 86
2019-06-09 07:00:00 9.2 5 Oeste -- -- 0 989.2 -0.2 94
2019-06-09 06:00:00 9.5 5 Oeste 8 Oeste 0 989.2 -0.4 92
2019-06-09 05:00:00 9.8 7 Noroeste 9 Norte 0 989.4 -0.3 89
2019-06-09 04:00:00 10.5 4 Nordeste 8 Nordeste 0 989.4 -0.4 88
2019-06-09 03:00:00 10.9 3 Noroeste 8 Oeste 0 989.6 -0.6 86
2019-06-09 02:00:00 11.4 2 Oeste 13 Norte 0 989.7 -0.8 84
2019-06-09 01:00:00 12.7 10 Norte 13 Norte 0 989.8 -0.6 78
2019-06-09 00:00:00 12.4 6 Norte 22 Oeste 0 990.2 0.1 78
2019-06-08 23:00:00 13.1 8 Oeste 17 Oeste 0 990.5 0.4 78
2019-06-08 22:00:00 13.8 13 Oeste 18 Oeste 0 990.4 0.3 77
2019-06-08 21:00:00 15.4 11 Oeste 22 Noroeste 0 990.1 -0.2 67
2019-06-08 20:00:00 16.8 12 Norte 24 Norte 0 990.1 -0.7 57
2019-06-08 19:00:00 16.9 13 Norte 22 Norte 0 990.1 -1 57
2019-06-08 18:00:00 17.2 13 Norte 24 Norte 0 990.3 -1.2 57
2019-06-08 17:00:00 15.8 13 Norte 26 Norte 0 990.8 -0.9 61
2019-06-08 16:00:00 15.5 9 Norte 24 Oeste 0 991.1 -0.7 63
2019-06-08 15:00:00 17.2 14 Oeste 26 Noroeste 0 991.5 -0.5 56
2019-06-08 14:00:00 17.4 8 Noroeste 21 Norte 0 991.7 -0.8 51
2019-06-08 13:00:00 17.3 5 Este 15 Norte 0 991.8 -0.7 50
2019-06-08 12:00:00 16.9 7 Nordeste 13 Este 0 992 -0.5 52
2019-06-08 11:00:00 14.4 5 Este 11 Este 0 992.5 -0.1 67
2019-06-08 10:00:00 12.1 6 Nordeste 11 Norte 0 992.5 0.1 75
2019-06-08 09:00:00 9.9 0 Calma 8 Oeste 0 992.5 -0.3 85
2019-06-08 08:00:00 8.5 6 Oeste 11 Sudoeste 0 992.6 -0.3 93
2019-06-08 07:00:00 8.2 3 Nordeste 9 Norte 0 992.4 -0.7 93
2019-06-08 06:00:00 8.2 4 Norte 5 Norte 0 992.8 -0.4 89
2019-06-08 05:00:00 8.4 3 Norte 9 Noroeste 0 992.9 -0.4 91
2019-06-08 04:00:00 8.6 3 Norte 9 Norte 0 993.1 -0.4 90
2019-06-08 03:00:00 8.8 5 Norte 11 Noroeste 0 993.2 -0.5 91
2019-06-08 02:00:00 9.2 6 Noroeste 8 Noroeste 0 993.3 0 89
2019-06-08 01:00:00 9.8 6 Nordeste 15 Noroeste 0 993.5 0.9 84
2019-06-08 00:00:00 10.3 0 Calma 17 Oeste 0 993.7 1.4 83
2019-06-07 23:00:00 11.2 5 Noroeste 17 Oeste 0 993.3 1.5 78
2019-06-07 22:00:00 12.7 10 Oeste 24 Oeste 0 992.6 1 71
2019-06-07 21:00:00 14.4 11 Oeste 21 Noroeste 0 992.3 1.1 59
2019-06-07 20:00:00 14.4 13 Noroeste 30 Oeste 0 991.8 0.9 59
2019-06-07 19:00:00 15 14 Oeste 30 Oeste 0 991.6 1.1 59
2019-06-07 18:00:00 15.4 19 Oeste 30 Oeste 0 991.2 1.2 59
2019-06-07 17:00:00 15.6 18 Oeste 33 Oeste 0 990.9 1.5 56
2019-06-07 16:00:00 15.5 18 Oeste 35 Sudoeste 0 990.5 1.7 55
2019-06-07 15:00:00 15.7 19 Oeste 33 Sudoeste 0 990 2 54
2019-06-07 14:00:00 15.9 16 Oeste 28 Oeste 0 989.4 2 56
2019-06-07 13:00:00 14.2 13 Oeste 28 Oeste 0 988.8 2.1 65
2019-06-07 12:00:00 14.3 12 Oeste 26 Oeste 0 988 1.9 68
2019-06-07 11:00:00 12.7 9 Sur 17 Sur 0 987.4 2.3 84
2019-06-07 10:00:00 12.8 8 Sur 13 Sur 0 986.7 2.2 83
2019-06-07 09:00:00 9.2 6 Sudoeste 17 Sur 0 986.1 2.4 96
2019-06-07 08:00:00 8.6 9 Sudoeste 17 Sur 0.1 985.1 2.2 96
2019-06-07 07:00:00 8.8 11 Sudoeste 17 Sudoeste 0.4 984.5 2.2 96
2019-06-07 06:00:00 8.6 8 Sur 13 Sur 0.2 983.7 1.9 96
2019-06-07 05:00:00 8.4 8 Sur 15 Sur 0.3 982.9 2 96
2019-06-07 04:00:00 8.5 7 Sur 15 Sudoeste 1 982.3 2 95
2019-06-07 03:00:00 9 11 Sudoeste 24 Noroeste 2.2 981.8 2.5 90
2019-06-07 02:00:00 10.7 6 Oeste 24 Oeste 0 980.9 2.3 86
2019-06-07 01:00:00 11.1 9 Oeste 32 Oeste 0 980.3 2.5 83
2019-06-07 00:00:00 11.1 8 Oeste 21 Oeste 0 979.3 2.3 84
2019-06-06 23:00:00 11.1 8 Sudoeste 24 Oeste 0 978.6 2.3 87
2019-06-06 22:00:00 11.2 16 Oeste 35 Oeste 0.2 977.8 1.9 86
2019-06-06 21:00:00 12 17 Oeste 37 Sudoeste 0.1 977 2.1 84
2019-06-06 20:00:00 11.7 21 Sudoeste 35 Oeste 0.2 976.3 2 88
2019-06-06 19:00:00 12.5 24 Oeste 55 Oeste 0 975.9 2.5 81
2019-06-06 18:00:00 13.2 22 Oeste 50 Sudoeste 0 974.9 2.3 81
2019-06-06 17:00:00 12.9 28 Sudoeste 55 Sudoeste 0.2 974.3 0.1 87
2019-06-06 16:00:00 13.2 45 Sudoeste 74 Sur 6.3 973.4 -1.1 95
2019-06-06 15:00:00 12.2 41 Sur 68 Sur 5 972.6 -2.9 97
2019-06-06 14:00:00 12 35 Sur 65 Sur 2.8 974.2 -3.4 97
2019-06-06 13:00:00 12 34 Sur 67 Sur 0.5 974.5 -4.1 94
2019-06-06 12:00:00 11.8 28 Sur 48 Sur 0.3 975.5 -3.7 92
2019-06-06 11:00:00 11.1 27 Sur 42 Sur 0.4 977.6 -2.6 94
2019-06-06 10:00:00 11.2 22 Sur 39 Sur 0 978.6 -2.9 93
2019-06-06 09:00:00 10.9 16 Sur 28 Sur 0 979.2 -3 96
2019-06-06 08:00:00 10.7 16 Sur 24 Sur 0 980.2 -2.9 91
2019-06-06 07:00:00 10.6 14 Sur 28 Sur 0.1 981.5 -2.4 93
2019-06-06 06:00:00 10.4 14 Sur 21 Sur 0.3 982.2 -2.5 96
2019-06-06 05:00:00 10.2 12 Sur 24 Sur 0.2 983.1 -2 96
2019-06-06 04:00:00 10.5 12 Sur 21 Sur 0.3 983.9 -1.8 92
2019-06-06 03:00:00 10.9 12 Sur 18 Sur 0 984.7 -1.4 86
2019-06-06 02:00:00 11.2 12 Sur 17 Sur 0 985.1 -1 85
2019-06-06 01:00:00 11.3 9 Sur 13 Sur 0 985.7 -0.4 84
2019-06-06 00:00:00 11.8 10 Sur 15 Sur 0 986.1 -0.1 77
2019-06-05 23:00:00 12.3 6 Sur 15 Sudoeste 0 986.1 -0.1 74
2019-06-05 22:00:00 12.9 9 Sudoeste 32 Sudoeste 0 986.1 -0.3 71
2019-06-05 21:00:00 13.5 12 Oeste 26 Oeste 0 986.2 -0.3 65
2019-06-05 20:00:00 14.1 12 Oeste 33 Sudoeste 0 986.2 -0.5 63
2019-06-05 19:00:00 14.5 15 Oeste 33 Oeste 0 986.4 -0.5 60
2019-06-05 18:00:00 15 16 Oeste 35 Oeste 0 986.5 -0.3 58
2019-06-05 17:00:00 15.1 17 Oeste 35 Sudoeste 0 986.7 -0.2 59
2019-06-05 16:00:00 14.7 17 Oeste 33 Sudoeste 0 986.9 0.2 57
2019-06-05 15:00:00 15.3 16 Oeste 39 Sudoeste 0 986.8 0.3 57
2019-06-05 14:00:00 15.4 20 Oeste 35 Oeste 0 986.9 0.5 56
2019-06-05 13:00:00 14.8 18 Oeste 33 Oeste 0 986.7 0.5 60
2019-06-05 12:00:00 14.4 14 Noroeste 24 Oeste 0 986.5 0.9 66
2019-06-05 11:00:00 13.8 12 Oeste 24 Norte 0 986.4 1.3 71
2019-06-05 10:00:00 12.6 4 Noroeste 17 Oeste 0 986.2 1.7 84
2019-06-05 09:00:00 11.6 9 Noroeste 21 Noroeste 0 985.6 1.3 83
2019-06-05 08:00:00 10.8 8 Oeste 15 Noroeste 1.5 985.1 0.7 89
2019-06-05 07:00:00 10.7 7 Oeste 13 Oeste 0 984.5 0.1 96
2019-06-05 06:00:00 10.3 -- -- -- -- 0 984.3 -0.1 96
2019-06-05 05:00:00 10.9 5 Oeste 9 Oeste 0 984.4 -0.1 94
2019-06-05 04:00:00 9.7 8 Oeste 9 Oeste 0 984.4 -0.1 95
2019-06-05 03:00:00 10.4 4 Oeste 9 Oeste 0 984.4 -0.2 95
2019-06-05 02:00:00 10.8 8 Oeste 13 Norte 0 984.5 0.3 90
2019-06-05 01:00:00 11.1 5 Norte 22 Noroeste 2.1 984.5 0.6 93
2019-06-05 00:00:00 12.5 8 Noroeste 22 Noroeste 0 984.6 0.8 82
2019-06-04 23:00:00 12.9 9 Oeste 17 Oeste 0 984.2 0.4 81
2019-06-04 22:00:00 13.3 9 Oeste 28 Oeste 0 983.9 0.2 79
2019-06-04 21:00:00 14.3 10 Oeste 32 Sudoeste 0 983.8 0.1 77
2019-06-04 20:00:00 14.8 15 Oeste 35 Oeste 0 983.8 -0.1 73
2019-06-04 19:00:00 14.7 20 Oeste 35 Oeste 0 983.7 -0.2 72
2019-06-04 18:00:00 15.6 19 Oeste 35 Oeste 0 983.7 -0.2 69
2019-06-04 17:00:00 15.6 24 Oeste 37 Oeste 0 983.9 0 70
2019-06-04 16:00:00 16 19 Oeste 33 Oeste 0 983.9 0.3 65
2019-06-04 15:00:00 17 21 Oeste 33 Sudoeste 0 983.9 0.6 64
2019-06-04 14:00:00 16.2 20 Oeste 32 Sudoeste 0 983.9 0.9 68
2019-06-04 13:00:00 16 22 Oeste 32 Oeste 0 983.6 1 68
2019-06-04 12:00:00 15.6 15 Oeste 28 Noroeste 0 983.3 1.5 68
2019-06-04 11:00:00 15 14 Noroeste 28 Noroeste 0 983 2.2 74
2019-06-04 10:00:00 13.7 14 Oeste 32 Oeste 0 982.6 1.4 83
2019-06-04 09:00:00 13.4 23 Oeste 39 Oeste 3.1 981.8 0.3 95
2019-06-04 08:00:00 13.6 19 Sur 28 Sur 0.2 980.8 -1.2 97
2019-06-04 07:00:00 13.7 17 Sur 28 Sur 0.1 981.2 -1 94
2019-06-04 06:00:00 14.4 15 Sur 24 Sudoeste 0 981.5 -1.3 87
2019-06-04 05:00:00 15.1 16 Sudoeste 28 Sudoeste 0 982 -1.8 80
2019-06-04 04:00:00 14.6 14 Sur 22 Sur 0 982.2 -2.2 81
2019-06-04 03:00:00 14.4 17 Sur 24 Sur 0 982.8 -2.2 78
2019-06-04 02:00:00 14.8 10 Sur 15 Sur 0 983.8 -1.5 76
2019-06-04 01:00:00 14.8 5 Sur 8 Sur 0 984.4 -1 74
2019-06-04 00:00:00 14.7 2 Este 8 Oeste 0 985 -0.5 77
2019-06-03 23:00:00 15.3 3 Noroeste 11 Oeste 0 985.3 -0.4 75
2019-06-03 22:00:00 15.8 2 Oeste 17 Sudoeste 0 985.4 -0.6 70
2019-06-03 21:00:00 16.8 11 Oeste 24 Oeste 0 985.5 -0.7 65
2019-06-03 20:00:00 16.8 14 Oeste 30 Oeste 0 985.7 -0.5 69
2019-06-03 19:00:00 17.5 19 Oeste 33 Oeste 0 986 -0.6 72
2019-06-03 18:00:00 17.7 25 Oeste 37 Oeste 0 986.2 -0.8 72
2019-06-03 17:00:00 19 22 Oeste 33 Sudoeste 0 986.2 -1 70
2019-06-03 16:00:00 18.9 21 Oeste 37 Sudoeste 0 986.6 -0.9 75
2019-06-03 15:00:00 17.7 22 Oeste 32 Oeste 0 987 -0.5 85
2019-06-03 14:00:00 17.4 20 Oeste 30 Sudoeste 0 987.2 -0.3 91
2019-06-03 13:00:00 17.3 13 Sur 21 Sudoeste 0.6 987.5 0.1 93
2019-06-03 12:00:00 16.9 10 Sur 18 Sur 0.4 987.5 0.1 93
2019-06-03 11:00:00 17.2 12 Sur 24 Sur 0 987.5 0.4 88
2019-06-03 10:00:00 16 10 Sur 21 Sur 0 987.4 0.3 90
2019-06-03 09:00:00 15.1 12 Sur 18 Sur 0 987.4 0.3 94
2019-06-03 08:00:00 14.9 12 Sur 18 Sur 0 987.1 -0.1 94
2019-06-03 07:00:00 14.8 11 Sur 17 Sur 0 987.1 -0.5 94
2019-06-03 06:00:00 15 12 Sur 22 Sur 0 987.1 -0.9 91
2019-06-03 05:00:00 15.1 15 Sudoeste 18 Sur 0 987.2 -1.1 91
2019-06-03 04:00:00 15.3 9 Sur 11 Sur 0 987.6 -1.1 90
2019-06-03 03:00:00 15.5 8 Sur 11 Sur 0 988 -0.8 90
2019-06-03 02:00:00 15 5 Oeste 9 Oeste 0 988.3 -0.4 91
2019-06-03 01:00:00 15.1 5 Oeste 8 Norte 0 988.7 0.7 87
2019-06-03 00:00:00 15.5 2 Noroeste 13 Oeste 0 988.8 1 87
2019-06-02 23:00:00 15.5 13 Oeste 24 Noroeste 0 988.7 1 89
2019-06-02 22:00:00 16.2 6 Oeste 28 Noroeste 0 988 0 85
2019-06-02 21:00:00 16.8 14 Oeste 32 Oeste 0 987.8 -0.1 80
2019-06-02 20:00:00 17.7 21 Oeste 32 Oeste 0 987.7 -0.3 74
2019-06-02 19:00:00 19.9 22 Oeste 33 Sudoeste 0 988 -0.1 63
2019-06-02 18:00:00 22.4 17 Oeste 28 Oeste 0 987.9 -0.4 47
2019-06-02 17:00:00 22.4 15 Oeste 26 Oeste 0 988 -0.4 57
2019-06-02 16:00:00 21.3 15 Oeste 24 Oeste 0 988.1 -0.6 64
2019-06-02 15:00:00 21.6 15 Oeste 21 Oeste 0 988.3 -0.4 62
2019-06-02 14:00:00 22.3 4 Oeste 13 Oeste 0 988.4 -0.1 60
2019-06-02 13:00:00 21 5 Nordeste 13 Este 0 988.7 0.4 65
2019-06-02 12:00:00 18.9 3 Nordeste 13 Norte 0 988.7 0.8 73
2019-06-02 11:00:00 18.4 6 Nordeste 13 Nordeste 0 988.5 1.1 75
2019-06-02 10:00:00 16.1 5 Sudoeste 26 Sudoeste 0 988.3 1 79
2019-06-02 09:00:00 14.4 15 Oeste 26 Oeste 0 987.9 0.7 89
2019-06-02 08:00:00 15.9 12 Sudoeste 15 Sudoeste 0 987.4 0.2 62
2019-06-02 07:00:00 14.8 6 Sudoeste 11 Sudoeste 0 987.3 -0.3 65
2019-06-02 06:00:00 14.7 6 Noroeste 13 Oeste 0 987.2 -0.8 63
2019-06-02 05:00:00 16.1 10 Sudoeste 13 Oeste 0 987.2 -1.3 58
2019-06-02 04:00:00 15.8 6 Sudoeste 11 Oeste 0 987.6 -0.9 56
2019-06-02 03:00:00 16.3 6 Norte 11 Noroeste 0 988 -0.7 66
2019-06-02 02:00:00 17.6 5 Norte 13 Oeste 0 988.5 0.1 65
2019-06-02 01:00:00 18.8 4 Norte 11 Norte 0 988.5 0.4 51
2019-06-02 00:00:00 18.8 4 Norte 26 Oeste 0 988.7 0.7 51
2019-06-01 23:00:00 18.7 10 Oeste 13 Oeste 0 988.4 0.5 51
2019-06-01 22:00:00 20.1 10 Oeste 13 Oeste 0 988.1 0.1 55
2019-06-01 21:00:00 25.3 9 Oeste 18 Oeste 0 988 -0.1 38
2019-06-01 20:00:00 26.6 15 Oeste 24 Oeste 0 987.9 -0.8 34
2019-06-01 19:00:00 27.4 15 Oeste 24 Noroeste 0 988 -0.5 35
2019-06-01 18:00:00 27.7 16 Oeste 30 Oeste 0 988.1 -0.7 38
2019-06-01 17:00:00 26.4 19 Oeste 28 Oeste 0 988.7 -0.5 41
2019-06-01 16:00:00 29.4 14 Oeste 28 Oeste 0 988.5 -0.7 29
2019-06-01 15:00:00 30.5 10 Sudoeste 22 Sudoeste 0 988.8 -0.2 29
2019-06-01 14:00:00 29.3 11 Noroeste 28 Oeste 0 989.2 0.3 30
2019-06-01 13:00:00 29.3 10 Sudoeste 15 Sur 0 989.2 0.4 32
2019-06-01 12:00:00 28 6 Sur 13 Sur 0 989 0.4 40
2019-06-01 11:00:00 24.8 9 Sur 13 Sur 0 988.9 0.5 46
2019-06-01 10:00:00 21.7 10 Sudoeste 13 Sudoeste 0 988.8 0.5 51
2019-06-01 09:00:00 20.2 8 Sur 13 Oeste 0 988.6 0.5 54
2019-06-01 08:00:00 18.6 8 Sudoeste 11 Sudoeste 0 988.4 0.2 58
2019-06-01 07:00:00 17 4 Sudoeste 11 Sudoeste 0 988.3 -0.2 61
2019-06-01 06:00:00 17.3 4 Sudoeste 5 Sudoeste 0 988.1 -0.6 61
2019-06-01 05:00:00 18.6 0 Calma 13 Oeste 0 988.2 -0.8 57
2019-06-01 04:00:00 20.1 11 Sudoeste 13 Sudoeste 0 988.5 -1 51
2019-06-01 03:00:00 19.7 7 Oeste 9 Sudoeste 0 988.7 -1 51
2019-06-01 02:00:00 19.5 6 Sudoeste 9 Oeste 0 989 -0.5 50
2019-06-01 01:00:00 21 4 Norte 11 Norte 0 989.5 0.2 45
2019-06-01 00:00:00 21.5 8 Norte 13 Noroeste 0 989.7 0.5 41
2019-05-31 23:00:00 22.2 6 Noroeste 15 Norte 0 989.5 0.4 40
2019-05-31 22:00:00 24.2 5 Norte 13 Norte 0 989.3 0 36
2019-05-31 21:00:00 26.3 6 Norte 13 Norte 0 989.2 -0.4 36
2019-05-31 20:00:00 27.1 9 Nordeste 13 Nordeste 0 989.1 -0.6 32
2019-05-31 19:00:00 29 6 Noroeste 45 Oeste 0 989.3 -0.6 27
2019-05-31 18:00:00 28.7 18 Oeste 33 Oeste 0 989.6 -0.5 28
2019-05-31 17:00:00 28.6 26 Oeste 37 Oeste 0 989.7 -0.6 26
2019-05-31 16:00:00 29.5 28 Oeste 39 Oeste 0 989.9 -0.2 26
2019-05-31 15:00:00 29.9 21 Oeste 30 Oeste 0 990.1 0 31
2019-05-31 14:00:00 32.9 19 Sur 28 Sur 0 990.3 0.1 25
2019-05-31 13:00:00 31.6 10 Sur 17 Sur 0 990.1 0 33
2019-05-31 12:00:00 29.4 12 Sur 18 Sur 0 990.1 0 39
2019-05-31 11:00:00 27.2 13 Sur 21 Sur 0 990.2 0.2 43
2019-05-31 10:00:00 24.2 16 Sur 24 Sur 0 990.1 0.3 48
2019-05-31 09:00:00 22.1 18 Sur 26 Sur 0 990.1 0.4 53
2019-05-31 08:00:00 20.7 14 Sur 26 Sur 0 990 0.4 57
2019-05-31 07:00:00 19.4 19 Sudoeste 24 Sur 0 989.8 -0.1 61
2019-05-31 06:00:00 20.1 10 Oeste 21 Sur 0 989.7 -0.8 58
2019-05-31 05:00:00 21.2 11 Sudoeste 21 Sur 0 989.6 -1.4 54
2019-05-31 04:00:00 21.8 11 Sudoeste 15 Sudoeste 0 989.9 -1.4 53
2019-05-31 03:00:00 19.9 8 Sudoeste 9 Sudoeste 0 990.5 -1 62
2019-05-31 02:00:00 21.1 0 Calma 9 Norte 0 991 -0.4 60
2019-05-31 01:00:00 23.9 8 Norte 18 Norte 0 991.3 0.4 48
2019-05-31 00:00:00 24.6 15 Norte 22 Norte 0 991.5 0.6 45
2019-05-30 23:00:00 22.1 6 Norte 15 Norte 0 991.4 0.4 50
2019-05-30 22:00:00 23.7 9 Norte 22 Noroeste 0 990.9 -0.5 48
2019-05-30 21:00:00 25.2 10 Noroeste 28 Oeste 0 990.9 -0.9 38
2019-05-30 20:00:00 26.1 20 Oeste 30 Oeste 0 991 -1.1 37
2019-05-30 19:00:00 27.8 18 Oeste 28 Oeste 0 991.4 -0.9 34
2019-05-30 18:00:00 28.5 18 Oeste 35 Oeste 0 991.8 -0.8 32
2019-05-30 17:00:00 29.2 17 Oeste 42 Oeste 0 992.1 -0.7 34
2019-05-30 16:00:00 29.3 19 Oeste 28 Oeste 0 992.3 -0.8 33
2019-05-30 15:00:00 29.5 18 Oeste 26 Oeste 0 992.6 -0.6 35
2019-05-30 14:00:00 30.3 6 Nordeste 15 Este 0 992.8 -0.4 38
2019-05-30 13:00:00 28.8 6 Sur 15 Este 0 993.1 0.1 42
2019-05-30 12:00:00 26 7 Sur 13 Sur 0 993.2 0.3 48
2019-05-30 11:00:00 23.8 7 Sur 13 Sudoeste 0 993.2 0.5 53
2019-05-30 10:00:00 20.6 9 Sur 15 Sudoeste 0 993 0.8 61
2019-05-30 09:00:00 18.2 12 Sur 21 Sur 0 992.9 1.1 67
2019-05-30 08:00:00 16.9 12 Sudoeste 21 Sudoeste 0 992.7 0.9 71
2019-05-30 07:00:00 16.8 13 Sudoeste 18 Sudoeste 0 992.2 0.3 71
2019-05-30 06:00:00 17.8 6 Sudoeste 15 Sudoeste 0 991.8 -0.3 65
2019-05-30 05:00:00 17.8 6 Sudoeste 13 Sudoeste 0 991.8 -0.6 66
2019-05-30 04:00:00 18.2 7 Sudoeste 11 Sudoeste 0 991.9 -0.7 62
2019-05-30 03:00:00 18.4 5 Oeste 9 Oeste 0 992.1 -0.5 57
2019-05-30 02:00:00 19.1 3 Oeste 9 Este 0 992.4 0.2 55
2019-05-30 01:00:00 20.9 7 Norte 21 Norte 0 992.6 1.1 54
2019-05-30 00:00:00 22.4 18 Norte 28 Norte 0 992.6 1.4 49
2019-05-29 23:00:00 22.6 11 Nordeste 24 Nordeste 0 992.2 1.2 53
2019-05-29 22:00:00 24.1 13 Norte 22 Norte 0 991.5 0.3 47
2019-05-29 21:00:00 25.9 7 Nordeste 13 Norte 0 991.2 0 45
2019-05-29 20:00:00 27.6 4 Sudeste 22 Sudoeste 0 991 -0.7 42
2019-05-29 19:00:00 28.8 13 Oeste 18 Oeste 0 991.2 -0.8 39
2019-05-29 18:00:00 28.5 13 Noroeste 21 Norte 0 991.2 -1.1 38
2019-05-29 17:00:00 28.3 12 Oeste 22 Sudoeste 0 991.7 -0.9 39
2019-05-29 16:00:00 28.1 9 Sudoeste 26 Este 0 992 -0.7 38
2019-05-29 15:00:00 27.7 6 Este 30 Este 0 992.3 -0.3 33
2019-05-29 14:00:00 27.1 12 Este 24 Nordeste 0 992.6 -0.1 37
2019-05-29 13:00:00 25.1 5 Este 13 Este 0 992.7 0.1 41
2019-05-29 12:00:00 22.8 6 Este 13 Sudeste 0 992.6 -0.3 47
2019-05-29 11:00:00 20.5 8 Este 17 Este 0 992.7 -0.1 53
2019-05-29 10:00:00 18.2 3 Nordeste 11 Sudoeste 0 992.6 0.1 53
2019-05-29 09:00:00 14.6 8 Sur 13 Sur 0 992.9 0.2 61
2019-05-29 08:00:00 12.7 5 Sudoeste 9 Sudoeste 0 992.8 0.5 66
2019-05-29 07:00:00 10.7 2 Este 5 Noroeste 0 992.5 0.1 74
2019-05-29 06:00:00 11 5 Nordeste 11 Norte 0 992.7 0.1 73
2019-05-29 05:00:00 11.4 6 Norte 15 Norte 0 992.3 -0.5 72
2019-05-29 04:00:00 11.3 16 Norte 21 Norte 0 992.4 -0.1 73
2019-05-29 03:00:00 13.2 9 Norte 15 Norte 0 992.6 0.3 61
2019-05-29 02:00:00 13.2 13 Norte 22 Nordeste 0 992.8 0.8 63
2019-05-29 01:00:00 14.7 13 Nordeste 32 Norte 0 992.5 0.9 57
2019-05-29 00:00:00 15.7 20 Nordeste 41 Norte 0 992.3 1.5 52
2019-05-28 23:00:00 16.3 24 Norte 37 Norte 0 992 1.5 60
2019-05-28 22:00:00 17.5 23 Norte 35 Norte 0 991.6 1.5 60
2019-05-28 21:00:00 19.3 24 Norte 41 Norte 0 990.8 0.7 56
2019-05-28 20:00:00 21.5 24 Norte 42 Norte 0 990.5 0.3 49
2019-05-28 19:00:00 22.6 24 Norte 39 Norte 0 990.1 -0.2 46
2019-05-28 18:00:00 23.7 20 Norte 42 Norte 0 990.1 -0.3 38
2019-05-28 17:00:00 23.6 25 Norte 39 Norte 0 990.2 -0.4 38
2019-05-28 16:00:00 22.9 27 Norte 41 Norte 0 990.3 -0.4 39
2019-05-28 15:00:00 22.5 21 Norte 35 Norte 0 990.4 -0.2 40
2019-05-28 14:00:00 21.5 23 Norte 37 Norte 0 990.6 0 42
2019-05-28 13:00:00 20.2 19 Norte 32 Norte 0 990.7 0.2 47
2019-05-28 12:00:00 18.7 18 Norte 32 Nordeste 0 990.6 0.4 50
2019-05-28 11:00:00 17.8 16 Nordeste 39 Nordeste 0 990.6 0.6 55
2019-05-28 10:00:00 15.6 16 Nordeste 28 Norte 0 990.5 0.8 60
2019-05-28 09:00:00 13.9 12 Nordeste 26 Norte 0 990.2 0.9 65
2019-05-28 08:00:00 11.7 13 Norte 24 Norte 0 990 1.1 71
2019-05-28 07:00:00 10.5 12 Nordeste 28 Este 0 989.7 1 75
2019-05-28 06:00:00 10.6 14 Nordeste 28 Norte 0 989.3 0.7 74
2019-05-28 05:00:00 10.1 11 Nordeste 22 Nordeste 0 988.9 0.4 82
2019-05-28 04:00:00 10.9 15 Nordeste 30 Norte 0 988.7 0.3 76
2019-05-28 03:00:00 11.3 14 Nordeste 28 Norte 0 988.6 0.1 75
2019-05-28 02:00:00 12.2 18 Norte 41 Norte 0 988.5 0.2 74
2019-05-28 01:00:00 12.5 29 Norte 45 Norte 0 988.4 0.8 78
2019-05-28 00:00:00 13.1 28 Norte 41 Norte 0 988.5 1.1 79
2019-05-27 23:00:00 14.1 22 Norte 35 Norte 0 988.3 1.3 76
2019-05-27 22:00:00 15.6 16 Norte 32 Norte 0 987.6 0.8 73
2019-05-27 21:00:00 18.2 24 Norte 42 Norte 0 987.4 0.7 64
2019-05-27 20:00:00 20.4 20 Norte 37 Norte 0 987 0 56
2019-05-27 19:00:00 21.3 22 Norte 42 Norte 0 986.8 -0.4 57
2019-05-27 18:00:00 22 30 Norte 42 Norte 0 986.7 -0.9 54
2019-05-27 17:00:00 22.2 30 Norte 45 Norte 0 987 -1.2 51
2019-05-27 16:00:00 22.1 26 Norte 39 Norte 0 987.2 -1.4 52
2019-05-27 15:00:00 21.6 23 Norte 39 Norte 0 987.6 -1.1 54
2019-05-27 14:00:00 21.4 23 Norte 37 Norte 0 988.2 -0.7 54
2019-05-27 13:00:00 21.1 16 Norte 30 Norte 0 988.6 -0.3 62
2019-05-27 12:00:00 19.6 16 Norte 28 Nordeste 0 988.7 0 68
2019-05-27 11:00:00 18.3 19 Norte 28 Norte 0 988.9 0.6 72
2019-05-27 10:00:00 17.2 13 Nordeste 21 Norte 0 988.9 0.1 77
2019-05-27 09:00:00 14.1 6 Nordeste 15 Nordeste 0 988.7 0.2 85
2019-05-27 08:00:00 13.4 11 Norte 22 Norte 0 988.3 -0.3 85
2019-05-27 07:00:00 11.8 8 Norte 21 Norte 0 988.8 -0.1 93
2019-05-27 06:00:00 11.8 7 Norte 17 Norte 0 988.5 -0.7 93
2019-05-27 05:00:00 12.2 14 Norte 18 Norte 0 988.6 -1 92
2019-05-27 04:00:00 12.5 5 Norte 17 Norte 0 988.9 -0.5 91
2019-05-27 03:00:00 12.6 12 Norte 15 Norte 0 989.2 -0.5 90
2019-05-27 02:00:00 13.4 13 Norte 21 Norte 0 989.6 0 86
2019-05-27 01:00:00 14.6 14 Norte 21 Norte 0 989.4 0.1 83
2019-05-27 00:00:00 15.5 17 Norte 32 Norte 0 989.7 0.5 78